sensor_id;sensor_type;location;lat;lon;timestamp;temperature;humidity
4390;DHT22;2209;48.982;8.406;2022-12-10T00:02:10;4.10;99.90
4390;DHT22;2209;48.982;8.406;2022-12-10T00:04:32;4.10;99.90
4390;DHT22;2209;48.982;8.406;2022-12-10T00:06:54;4.10;99.90
4390;DHT22;2209;48.982;8.406;2022-12-10T00:09:18;4.10;99.90
4390;DHT22;2209;48.982;8.406;2022-12-10T00:11:42;4.10;99.90
4390;DHT22;2209;48.982;8.406;2022-12-10T00:14:04;4.10;99.90
4390;DHT22;2209;48.982;8.406;2022-12-10T00:16:28;4.20;99.90
4390;DHT22;2209;48.982;8.406;2022-12-10T00:18:52;4.20;99.90
4390;DHT22;2209;48.982;8.406;2022-12-10T00:21:16;4.20;99.90
4390;DHT22;2209;48.982;8.406;2022-12-10T00:23:41;4.20;99.90
4390;DHT22;2209;48.982;8.406;2022-12-10T00:26:04;4.20;99.90
4390;DHT22;2209;48.982;8.406;2022-12-10T00:28:28;4.20;99.90
4390;DHT22;2209;48.982;8.406;2022-12-10T00:30:50;4.20;99.90
4390;DHT22;2209;48.982;8.406;2022-12-10T00:33:12;4.20;99.90
4390;DHT22;2209;48.982;8.406;2022-12-10T00:35:35;4.20;99.90
4390;DHT22;2209;48.982;8.406;2022-12-10T00:37:57;4.20;99.90
4390;DHT22;2209;48.982;8.406;2022-12-10T00:40:20;4.20;99.90
4390;DHT22;2209;48.982;8.406;2022-12-10T00:42:42;4.20;99.90
4390;DHT22;2209;48.982;8.406;2022-12-10T00:45:06;4.20;99.90
4390;DHT22;2209;48.982;8.406;2022-12-10T00:47:28;4.20;99.90
4390;DHT22;2209;48.982;8.406;2022-12-10T00:49:50;4.20;99.90
4390;DHT22;2209;48.982;8.406;2022-12-10T00:52:12;4.20;99.90
4390;DHT22;2209;48.982;8.406;2022-12-10T00:54:35;4.20;99.90
4390;DHT22;2209;48.982;8.406;2022-12-10T00:56:57;4.30;99.90
4390;DHT22;2209;48.982;8.406;2022-12-10T00:59:19;4.30;99.90
4390;DHT22;2209;48.982;8.406;2022-12-10T01:01:42;4.20;99.90
4390;DHT22;2209;48.982;8.406;2022-12-10T01:04:07;4.20;99.90
4390;DHT22;2209;48.982;8.406;2022-12-10T01:06:32;4.20;99.90
4390;DHT22;2209;48.982;8.406;2022-12-10T01:08:56;4.20;99.90
4390;DHT22;2209;48.982;8.406;2022-12-10T01:11:20;4.10;99.90
4390;DHT22;2209;48.982;8.406;2022-12-10T01:13:43;4.10;99.90
4390;DHT22;2209;48.982;8.406;2022-12-10T01:16:08;4.10;99.90
4390;DHT22;2209;48.982;8.406;2022-12-10T01:18:32;4.10;99.90
4390;DHT22;2209;48.982;8.406;2022-12-10T01:20:54;4.10;99.90
4390;DHT22;2209;48.982;8.406;2022-12-10T01:23:16;4.10;99.90
4390;DHT22;2209;48.982;8.406;2022-12-10T01:25:38;4.10;99.90
4390;DHT22;2209;48.982;8.406;2022-12-10T01:28:00;4.10;99.90
4390;DHT22;2209;48.982;8.406;2022-12-10T01:30:22;4.10;99.90
4390;DHT22;2209;48.982;8.406;2022-12-10T01:32:44;4.00;99.90
4390;DHT22;2209;48.982;8.406;2022-12-10T01:35:08;4.00;99.90
4390;DHT22;2209;48.982;8.406;2022-12-10T01:37:39;4.00;99.90
4390;DHT22;2209;48.982;8.406;2022-12-10T01:40:02;4.00;99.90
4390;DHT22;2209;48.982;8.406;2022-12-10T01:42:24;4.00;99.90
4390;DHT22;2209;48.982;8.406;2022-12-10T01:45:13;4.00;99.90
4390;DHT22;2209;48.982;8.406;2022-12-10T01:47:35;4.00;99.90
4390;DHT22;2209;48.982;8.406;2022-12-10T01:49:57;4.00;99.90
4390;DHT22;2209;48.982;8.406;2022-12-10T01:52:21;4.00;99.90
4390;DHT22;2209;48.982;8.406;2022-12-10T01:54:45;4.00;99.90
4390;DHT22;2209;48.982;8.406;2022-12-10T01:57:09;4.00;99.90
4390;DHT22;2209;48.982;8.406;2022-12-10T01:59:33;4.00;99.90
4390;DHT22;2209;48.982;8.406;2022-12-10T02:02:00;4.00;99.90
4390;DHT22;2209;48.982;8.406;2022-12-10T02:04:42;4.00;99.90
4390;DHT22;2209;48.982;8.406;2022-12-10T02:07:13;4.00;99.90
4390;DHT22;2209;48.982;8.406;2022-12-10T02:09:42;4.00;99.90
4390;DHT22;2209;48.982;8.406;2022-12-10T02:12:11;4.00;99.90
4390;DHT22;2209;48.982;8.406;2022-12-10T02:14:43;4.00;99.90
4390;DHT22;2209;48.982;8.406;2022-12-10T02:17:11;4.00;99.90
4390;DHT22;2209;48.982;8.406;2022-12-10T02:19:54;4.00;99.90
4390;DHT22;2209;48.982;8.406;2022-12-10T02:22:19;4.00;99.90
4390;DHT22;2209;48.982;8.406;2022-12-10T02:24:45;4.00;99.90
4390;DHT22;2209;48.982;8.406;2022-12-10T02:27:14;4.00;99.90
4390;DHT22;2209;48.982;8.406;2022-12-10T02:29:40;4.00;99.90
4390;DHT22;2209;48.982;8.406;2022-12-10T02:32:05;4.00;99.90
4390;DHT22;2209;48.982;8.406;2022-12-10T02:34:31;4.00;99.90
4390;DHT22;2209;48.982;8.406;2022-12-10T02:36:56;4.00;99.90
4390;DHT22;2209;48.982;8.406;2022-12-10T02:39:22;4.00;99.90
4390;DHT22;2209;48.982;8.406;2022-12-10T02:41:47;3.90;99.90
4390;DHT22;2209;48.982;8.406;2022-12-10T02:44:13;4.00;99.90
4390;DHT22;2209;48.982;8.406;2022-12-10T02:46:38;3.90;99.90
4390;DHT22;2209;48.982;8.406;2022-12-10T02:49:03;3.90;99.90
4390;DHT22;2209;48.982;8.406;2022-12-10T02:51:26;4.00;99.90
4390;DHT22;2209;48.982;8.406;2022-12-10T02:53:58;4.00;99.90
4390;DHT22;2209;48.982;8.406;2022-12-10T02:56:25;4.00;99.90
4390;DHT22;2209;48.982;8.406;2022-12-10T02:58:59;4.00;99.90
4390;DHT22;2209;48.982;8.406;2022-12-10T03:01:29;4.00;99.90
4390;DHT22;2209;48.982;8.406;2022-12-10T03:04:01;3.90;99.90
4390;DHT22;2209;48.982;8.406;2022-12-10T03:06:28;3.90;99.90
4390;DHT22;2209;48.982;8.406;2022-12-10T03:08:56;3.90;99.90
4390;DHT22;2209;48.982;8.406;2022-12-10T03:11:23;4.00;99.90
4390;DHT22;2209;48.982;8.406;2022-12-10T03:13:52;4.00;99.90
4390;DHT22;2209;48.982;8.406;2022-12-10T03:16:16;4.00;99.90
4390;DHT22;2209;48.982;8.406;2022-12-10T03:18:39;4.00;99.90
4390;DHT22;2209;48.982;8.406;2022-12-10T03:21:04;4.00;99.90
4390;DHT22;2209;48.982;8.406;2022-12-10T03:23:28;3.90;99.90
4390;DHT22;2209;48.982;8.406;2022-12-10T03:25:51;3.90;99.90
4390;DHT22;2209;48.982;8.406;2022-12-10T03:28:14;4.00;99.90
4390;DHT22;2209;48.982;8.406;2022-12-10T03:30:39;4.00;99.90
4390;DHT22;2209;48.982;8.406;2022-12-10T03:33:03;4.00;99.90
4390;DHT22;2209;48.982;8.406;2022-12-10T03:35:26;4.00;99.90
4390;DHT22;2209;48.982;8.406;2022-12-10T03:37:49;4.00;99.90
4390;DHT22;2209;48.982;8.406;2022-12-10T03:40:12;4.00;99.90
4390;DHT22;2209;48.982;8.406;2022-12-10T03:42:35;4.00;99.90
4390;DHT22;2209;48.982;8.406;2022-12-10T03:44:57;4.00;99.90
4390;DHT22;2209;48.982;8.406;2022-12-10T03:47:19;3.90;99.90
4390;DHT22;2209;48.982;8.406;2022-12-10T03:49:42;3.90;99.90
4390;DHT22;2209;48.982;8.406;2022-12-10T03:52:04;4.00;99.90
4390;DHT22;2209;48.982;8.406;2022-12-10T03:54:28;3.90;99.90
4390;DHT22;2209;48.982;8.406;2022-12-10T03:56:50;3.90;99.90
4390;DHT22;2209;48.982;8.406;2022-12-10T03:59:12;3.90;99.90
4390;DHT22;2209;48.982;8.406;2022-12-10T04:01:34;3.90;99.90
4390;DHT22;2209;48.982;8.406;2022-12-10T04:03:56;3.90;99.90
4390;DHT22;2209;48.982;8.406;2022-12-10T04:06:18;3.90;99.90
4390;DHT22;2209;48.982;8.406;2022-12-10T04:08:41;3.90;99.90
4390;DHT22;2209;48.982;8.406;2022-12-10T04:11:07;3.90;99.90
4390;DHT22;2209;48.982;8.406;2022-12-10T04:13:31;3.90;99.90
4390;DHT22;2209;48.982;8.406;2022-12-10T04:16:20;3.90;99.90
4390;DHT22;2209;48.982;8.406;2022-12-10T04:18:48;3.90;99.90
4390;DHT22;2209;48.982;8.406;2022-12-10T04:21:10;3.90;99.90
4390;DHT22;2209;48.982;8.406;2022-12-10T04:23:50;3.90;99.90
4390;DHT22;2209;48.982;8.406;2022-12-10T04:26:31;3.90;99.90
4390;DHT22;2209;48.982;8.406;2022-12-10T04:29:23;3.90;99.90
4390;DHT22;2209;48.982;8.406;2022-12-10T04:31:46;3.90;99.90
4390;DHT22;2209;48.982;8.406;2022-12-10T04:34:08;3.90;99.90
4390;DHT22;2209;48.982;8.406;2022-12-10T04:36:30;3.90;99.90
4390;DHT22;2209;48.982;8.406;2022-12-10T04:38:52;3.90;99.90
4390;DHT22;2209;48.982;8.406;2022-12-10T04:41:14;3.90;99.90
4390;DHT22;2209;48.982;8.406;2022-12-10T04:43:38;3.80;99.90
4390;DHT22;2209;48.982;8.406;2022-12-10T04:46:01;3.90;99.90
4390;DHT22;2209;48.982;8.406;2022-12-10T04:48:23;3.90;99.90
4390;DHT22;2209;48.982;8.406;2022-12-10T04:50:46;3.90;99.90
4390;DHT22;2209;48.982;8.406;2022-12-10T04:53:08;3.90;99.90
4390;DHT22;2209;48.982;8.406;2022-12-10T04:55:30;3.90;99.90
4390;DHT22;2209;48.982;8.406;2022-12-10T04:57:52;3.90;99.90
4390;DHT22;2209;48.982;8.406;2022-12-10T05:00:16;3.90;99.90
4390;DHT22;2209;48.982;8.406;2022-12-10T05:02:38;3.90;99.90
4390;DHT22;2209;48.982;8.406;2022-12-10T05:05:00;3.90;99.90
4390;DHT22;2209;48.982;8.406;2022-12-10T05:07:22;3.80;99.90
4390;DHT22;2209;48.982;8.406;2022-12-10T05:09:44;3.80;99.90
4390;DHT22;2209;48.982;8.406;2022-12-10T05:12:06;3.80;99.90
4390;DHT22;2209;48.982;8.406;2022-12-10T05:14:28;3.80;99.90
4390;DHT22;2209;48.982;8.406;2022-12-10T05:16:52;3.90;99.90
4390;DHT22;2209;48.982;8.406;2022-12-10T05:19:14;3.90;99.90
4390;DHT22;2209;48.982;8.406;2022-12-10T05:21:36;3.90;99.90
4390;DHT22;2209;48.982;8.406;2022-12-10T05:24:18;3.90;99.90
4390;DHT22;2209;48.982;8.406;2022-12-10T05:26:40;4.00;99.90
4390;DHT22;2209;48.982;8.406;2022-12-10T05:29:02;3.90;99.90
4390;DHT22;2209;48.982;8.406;2022-12-10T05:31:27;3.90;99.90
4390;DHT22;2209;48.982;8.406;2022-12-10T05:33:51;3.90;99.90
4390;DHT22;2209;48.982;8.406;2022-12-10T05:36:15;3.90;99.90
4390;DHT22;2209;48.982;8.406;2022-12-10T05:38:38;3.90;99.90
4390;DHT22;2209;48.982;8.406;2022-12-10T05:41:02;3.80;99.90
4390;DHT22;2209;48.982;8.406;2022-12-10T05:43:24;3.80;99.90
4390;DHT22;2209;48.982;8.406;2022-12-10T05:45:46;3.80;99.90
4390;DHT22;2209;48.982;8.406;2022-12-10T05:48:09;3.80;99.90
4390;DHT22;2209;48.982;8.406;2022-12-10T05:50:32;3.80;99.90
4390;DHT22;2209;48.982;8.406;2022-12-10T05:52:54;3.80;99.90
4390;DHT22;2209;48.982;8.406;2022-12-10T05:55:17;3.80;99.90
4390;DHT22;2209;48.982;8.406;2022-12-10T05:57:39;3.80;99.90
4390;DHT22;2209;48.982;8.406;2022-12-10T06:00:01;3.80;99.90
4390;DHT22;2209;48.982;8.406;2022-12-10T06:02:23;3.80;99.90
4390;DHT22;2209;48.982;8.406;2022-12-10T06:04:45;3.80;99.90
4390;DHT22;2209;48.982;8.406;2022-12-10T06:07:08;3.80;99.90
4390;DHT22;2209;48.982;8.406;2022-12-10T06:09:30;3.80;99.90
4390;DHT22;2209;48.982;8.406;2022-12-10T06:11:52;3.80;99.90
4390;DHT22;2209;48.982;8.406;2022-12-10T06:14:14;3.80;99.90
4390;DHT22;2209;48.982;8.406;2022-12-10T06:16:36;3.70;99.90
4390;DHT22;2209;48.982;8.406;2022-12-10T06:19:00;3.70;99.90
4390;DHT22;2209;48.982;8.406;2022-12-10T06:21:22;3.70;99.90
4390;DHT22;2209;48.982;8.406;2022-12-10T06:23:47;3.70;99.90
4390;DHT22;2209;48.982;8.406;2022-12-10T06:26:14;3.60;99.90
4390;DHT22;2209;48.982;8.406;2022-12-10T06:28:37;3.70;99.90
4390;DHT22;2209;48.982;8.406;2022-12-10T06:30:59;3.70;99.90
4390;DHT22;2209;48.982;8.406;2022-12-10T06:33:21;3.70;99.90
4390;DHT22;2209;48.982;8.406;2022-12-10T06:35:43;3.70;99.90
4390;DHT22;2209;48.982;8.406;2022-12-10T06:38:06;3.70;99.90
4390;DHT22;2209;48.982;8.406;2022-12-10T06:40:29;3.70;99.90
4390;DHT22;2209;48.982;8.406;2022-12-10T06:42:51;3.70;99.90
4390;DHT22;2209;48.982;8.406;2022-12-10T06:45:13;3.60;99.90
4390;DHT22;2209;48.982;8.406;2022-12-10T06:47:35;3.60;99.90
4390;DHT22;2209;48.982;8.406;2022-12-10T06:49:57;3.50;99.90
4390;DHT22;2209;48.982;8.406;2022-12-10T06:52:19;3.50;99.90
4390;DHT22;2209;48.982;8.406;2022-12-10T06:54:42;3.50;99.90
4390;DHT22;2209;48.982;8.406;2022-12-10T06:57:05;3.60;99.90
4390;DHT22;2209;48.982;8.406;2022-12-10T06:59:27;3.60;99.90
4390;DHT22;2209;48.982;8.406;2022-12-10T07:01:49;3.60;99.90
4390;DHT22;2209;48.982;8.406;2022-12-10T07:04:12;3.60;99.90
4390;DHT22;2209;48.982;8.406;2022-12-10T07:06:34;3.50;99.90
4390;DHT22;2209;48.982;8.406;2022-12-10T07:08:56;3.40;99.90
4390;DHT22;2209;48.982;8.406;2022-12-10T07:11:22;3.40;99.90
4390;DHT22;2209;48.982;8.406;2022-12-10T07:13:46;3.50;99.90
4390;DHT22;2209;48.982;8.406;2022-12-10T07:16:12;3.50;99.90
4390;DHT22;2209;48.982;8.406;2022-12-10T07:18:35;3.50;99.90
4390;DHT22;2209;48.982;8.406;2022-12-10T07:20:57;3.50;99.90
4390;DHT22;2209;48.982;8.406;2022-12-10T07:23:19;3.50;99.90
4390;DHT22;2209;48.982;8.406;2022-12-10T07:25:41;3.50;99.90
4390;DHT22;2209;48.982;8.406;2022-12-10T07:28:03;3.60;99.90
4390;DHT22;2209;48.982;8.406;2022-12-10T07:30:27;3.60;99.90
4390;DHT22;2209;48.982;8.406;2022-12-10T07:32:49;3.60;99.90
4390;DHT22;2209;48.982;8.406;2022-12-10T07:35:11;3.60;99.90
4390;DHT22;2209;48.982;8.406;2022-12-10T07:37:33;3.50;99.90
4390;DHT22;2209;48.982;8.406;2022-12-10T07:39:55;3.60;99.90
4390;DHT22;2209;48.982;8.406;2022-12-10T07:42:17;3.50;99.90
4390;DHT22;2209;48.982;8.406;2022-12-10T07:44:39;3.50;99.90
4390;DHT22;2209;48.982;8.406;2022-12-10T07:47:03;3.50;99.90
4390;DHT22;2209;48.982;8.406;2022-12-10T07:49:26;3.50;99.90
4390;DHT22;2209;48.982;8.406;2022-12-10T07:51:49;3.40;99.90
4390;DHT22;2209;48.982;8.406;2022-12-10T07:54:11;3.40;99.90
4390;DHT22;2209;48.982;8.406;2022-12-10T07:56:34;3.50;99.90
4390;DHT22;2209;48.982;8.406;2022-12-10T07:58:56;3.50;99.90
4390;DHT22;2209;48.982;8.406;2022-12-10T08:01:19;3.40;99.90
4390;DHT22;2209;48.982;8.406;2022-12-10T08:03:44;3.30;99.90
4390;DHT22;2209;48.982;8.406;2022-12-10T08:06:08;3.30;99.90
4390;DHT22;2209;48.982;8.406;2022-12-10T08:08:32;3.30;99.90
4390;DHT22;2209;48.982;8.406;2022-12-10T08:10:54;3.30;99.90
4390;DHT22;2209;48.982;8.406;2022-12-10T08:13:16;3.30;99.90
4390;DHT22;2209;48.982;8.406;2022-12-10T08:15:38;3.40;99.90
4390;DHT22;2209;48.982;8.406;2022-12-10T08:18:00;3.40;99.90
4390;DHT22;2209;48.982;8.406;2022-12-10T08:20:24;3.30;99.90
4390;DHT22;2209;48.982;8.406;2022-12-10T08:22:46;3.20;99.90
4390;DHT22;2209;48.982;8.406;2022-12-10T08:25:09;3.20;99.90
4390;DHT22;2209;48.982;8.406;2022-12-10T08:27:31;3.20;99.90
4390;DHT22;2209;48.982;8.406;2022-12-10T08:29:53;3.20;99.90
4390;DHT22;2209;48.982;8.406;2022-12-10T08:32:15;3.20;99.90
4390;DHT22;2209;48.982;8.406;2022-12-10T08:34:37;3.20;99.90
4390;DHT22;2209;48.982;8.406;2022-12-10T08:37:01;3.30;99.90
4390;DHT22;2209;48.982;8.406;2022-12-10T08:39:23;3.30;99.90
4390;DHT22;2209;48.982;8.406;2022-12-10T08:41:45;3.30;99.90
4390;DHT22;2209;48.982;8.406;2022-12-10T08:44:08;3.30;99.90
4390;DHT22;2209;48.982;8.406;2022-12-10T08:46:30;3.30;99.90
4390;DHT22;2209;48.982;8.406;2022-12-10T08:48:52;3.30;99.90
4390;DHT22;2209;48.982;8.406;2022-12-10T08:51:15;3.20;99.90
4390;DHT22;2209;48.982;8.406;2022-12-10T08:53:39;3.20;99.90
4390;DHT22;2209;48.982;8.406;2022-12-10T08:56:01;3.20;99.90
4390;DHT22;2209;48.982;8.406;2022-12-10T08:58:23;3.20;99.90
4390;DHT22;2209;48.982;8.406;2022-12-10T09:00:46;3.20;99.90
4390;DHT22;2209;48.982;8.406;2022-12-10T09:03:09;3.20;99.90
4390;DHT22;2209;48.982;8.406;2022-12-10T09:05:31;3.20;99.90
4390;DHT22;2209;48.982;8.406;2022-12-10T09:07:53;3.20;99.90
4390;DHT22;2209;48.982;8.406;2022-12-10T09:10:16;3.20;99.90
4390;DHT22;2209;48.982;8.406;2022-12-10T09:12:39;3.20;99.90
4390;DHT22;2209;48.982;8.406;2022-12-10T09:15:01;3.20;99.90
4390;DHT22;2209;48.982;8.406;2022-12-10T09:17:23;3.20;99.90
4390;DHT22;2209;48.982;8.406;2022-12-10T09:19:45;3.20;99.90
4390;DHT22;2209;48.982;8.406;2022-12-10T09:22:07;3.30;99.90
4390;DHT22;2209;48.982;8.406;2022-12-10T09:24:30;3.30;99.90
4390;DHT22;2209;48.982;8.406;2022-12-10T09:26:53;3.30;99.90
4390;DHT22;2209;48.982;8.406;2022-12-10T09:29:15;3.30;99.90
4390;DHT22;2209;48.982;8.406;2022-12-10T09:31:37;3.30;99.90
4390;DHT22;2209;48.982;8.406;2022-12-10T09:33:59;3.30;99.90
4390;DHT22;2209;48.982;8.406;2022-12-10T09:36:22;3.30;99.90
4390;DHT22;2209;48.982;8.406;2022-12-10T09:38:44;3.20;99.90
4390;DHT22;2209;48.982;8.406;2022-12-10T09:43:59;3.30;99.90
4390;DHT22;2209;48.982;8.406;2022-12-10T09:46:31;3.30;99.90
4390;DHT22;2209;48.982;8.406;2022-12-10T09:49:03;3.30;99.90
4390;DHT22;2209;48.982;8.406;2022-12-10T09:51:31;3.30;99.90
4390;DHT22;2209;48.982;8.406;2022-12-10T09:53:54;3.30;99.90
4390;DHT22;2209;48.982;8.406;2022-12-10T09:56:22;3.40;99.90
4390;DHT22;2209;48.982;8.406;2022-12-10T09:58:45;3.40;99.90
4390;DHT22;2209;48.982;8.406;2022-12-10T10:01:14;3.40;99.90
4390;DHT22;2209;48.982;8.406;2022-12-10T10:03:38;3.40;99.90
4390;DHT22;2209;48.982;8.406;2022-12-10T10:06:03;3.40;99.90
4390;DHT22;2209;48.982;8.406;2022-12-10T10:08:28;3.40;99.90
4390;DHT22;2209;48.982;8.406;2022-12-10T10:10:51;3.40;99.90
4390;DHT22;2209;48.982;8.406;2022-12-10T10:13:29;3.40;99.90
4390;DHT22;2209;48.982;8.406;2022-12-10T10:15:52;3.40;99.90
4390;DHT22;2209;48.982;8.406;2022-12-10T10:18:23;3.50;99.90
4390;DHT22;2209;48.982;8.406;2022-12-10T10:20:48;3.50;99.90
4390;DHT22;2209;48.982;8.406;2022-12-10T10:23:13;3.50;99.90
4390;DHT22;2209;48.982;8.406;2022-12-10T10:25:36;3.50;99.90
4390;DHT22;2209;48.982;8.406;2022-12-10T10:27:58;3.50;99.90
4390;DHT22;2209;48.982;8.406;2022-12-10T10:30:22;3.50;99.90
4390;DHT22;2209;48.982;8.406;2022-12-10T10:32:47;3.50;99.90
4390;DHT22;2209;48.982;8.406;2022-12-10T10:35:23;3.60;99.90
4390;DHT22;2209;48.982;8.406;2022-12-10T10:37:46;3.60;99.90
4390;DHT22;2209;48.982;8.406;2022-12-10T10:40:21;3.60;99.90
4390;DHT22;2209;48.982;8.406;2022-12-10T10:42:45;3.60;99.90
4390;DHT22;2209;48.982;8.406;2022-12-10T10:45:30;3.60;99.90
4390;DHT22;2209;48.982;8.406;2022-12-10T10:48:04;3.50;99.90
4390;DHT22;2209;48.982;8.406;2022-12-10T10:50:38;3.50;99.90
4390;DHT22;2209;48.982;8.406;2022-12-10T10:53:01;3.30;99.90
4390;DHT22;2209;48.982;8.406;2022-12-10T10:55:32;3.20;99.90
4390;DHT22;2209;48.982;8.406;2022-12-10T10:57:56;3.20;99.90
4390;DHT22;2209;48.982;8.406;2022-12-10T11:00:20;3.20;99.90
4390;DHT22;2209;48.982;8.406;2022-12-10T11:02:43;3.20;99.90
4390;DHT22;2209;48.982;8.406;2022-12-10T11:05:08;3.20;99.90
4390;DHT22;2209;48.982;8.406;2022-12-10T11:07:39;3.20;99.90
4390;DHT22;2209;48.982;8.406;2022-12-10T11:10:03;3.20;99.90
4390;DHT22;2209;48.982;8.406;2022-12-10T11:12:33;3.30;99.90
4390;DHT22;2209;48.982;8.406;2022-12-10T11:14:56;3.30;99.90
4390;DHT22;2209;48.982;8.406;2022-12-10T11:17:20;3.30;99.90
4390;DHT22;2209;48.982;8.406;2022-12-10T11:19:45;3.20;99.90
4390;DHT22;2209;48.982;8.406;2022-12-10T11:22:17;3.20;99.90
4390;DHT22;2209;48.982;8.406;2022-12-10T11:24:40;3.20;99.90
4390;DHT22;2209;48.982;8.406;2022-12-10T11:27:04;3.20;99.90
4390;DHT22;2209;48.982;8.406;2022-12-10T11:29:46;3.20;99.90
4390;DHT22;2209;48.982;8.406;2022-12-10T11:32:27;3.20;99.90
4390;DHT22;2209;48.982;8.406;2022-12-10T11:35:01;3.40;99.90
4390;DHT22;2209;48.982;8.406;2022-12-10T11:37:30;3.30;99.90
4390;DHT22;2209;48.982;8.406;2022-12-10T11:40:10;3.30;99.90
4390;DHT22;2209;48.982;8.406;2022-12-10T11:42:41;3.30;99.90
4390;DHT22;2209;48.982;8.406;2022-12-10T11:45:12;3.30;99.90
4390;DHT22;2209;48.982;8.406;2022-12-10T11:47:44;3.40;99.90
4390;DHT22;2209;48.982;8.406;2022-12-10T11:50:15;3.40;99.90
4390;DHT22;2209;48.982;8.406;2022-12-10T11:52:47;3.40;99.90
4390;DHT22;2209;48.982;8.406;2022-12-10T11:55:22;3.40;99.90
4390;DHT22;2209;48.982;8.406;2022-12-10T11:57:49;3.40;99.90
4390;DHT22;2209;48.982;8.406;2022-12-10T12:00:18;3.40;99.90
4390;DHT22;2209;48.982;8.406;2022-12-10T12:02:51;3.40;99.90
4390;DHT22;2209;48.982;8.406;2022-12-10T12:05:41;3.50;99.90
4390;DHT22;2209;48.982;8.406;2022-12-10T12:08:16;3.50;99.90
4390;DHT22;2209;48.982;8.406;2022-12-10T12:11:05;3.50;99.90
4390;DHT22;2209;48.982;8.406;2022-12-10T12:13:33;3.50;99.90
4390;DHT22;2209;48.982;8.406;2022-12-10T12:15:59;3.50;99.90
4390;DHT22;2209;48.982;8.406;2022-12-10T12:18:38;3.50;99.90
4390;DHT22;2209;48.982;8.406;2022-12-10T12:21:04;3.60;99.90
4390;DHT22;2209;48.982;8.406;2022-12-10T12:23:31;3.50;99.90
4390;DHT22;2209;48.982;8.406;2022-12-10T12:26:00;3.50;99.90
4390;DHT22;2209;48.982;8.406;2022-12-10T12:28:27;3.40;99.90
4390;DHT22;2209;48.982;8.406;2022-12-10T12:30:58;3.40;99.90
4390;DHT22;2209;48.982;8.406;2022-12-10T12:33:28;3.40;99.90
4390;DHT22;2209;48.982;8.406;2022-12-10T12:35:55;3.40;99.90
4390;DHT22;2209;48.982;8.406;2022-12-10T12:38:26;3.40;99.90
4390;DHT22;2209;48.982;8.406;2022-12-10T12:40:52;3.40;99.90
4390;DHT22;2209;48.982;8.406;2022-12-10T12:43:19;3.50;99.90
4390;DHT22;2209;48.982;8.406;2022-12-10T12:45:44;3.50;99.90
4390;DHT22;2209;48.982;8.406;2022-12-10T12:48:16;3.50;99.90
4390;DHT22;2209;48.982;8.406;2022-12-10T12:50:44;3.40;99.90
4390;DHT22;2209;48.982;8.406;2022-12-10T12:53:11;3.40;99.90
4390;DHT22;2209;48.982;8.406;2022-12-10T12:55:39;3.30;99.90
4390;DHT22;2209;48.982;8.406;2022-12-10T12:58:14;3.30;99.90
4390;DHT22;2209;48.982;8.406;2022-12-10T13:00:40;3.30;99.90
4390;DHT22;2209;48.982;8.406;2022-12-10T13:03:15;3.30;99.90
4390;DHT22;2209;48.982;8.406;2022-12-10T13:05:40;3.30;99.90
4390;DHT22;2209;48.982;8.406;2022-12-10T13:08:23;3.30;99.90
4390;DHT22;2209;48.982;8.406;2022-12-10T13:10:52;3.30;99.90
4390;DHT22;2209;48.982;8.406;2022-12-10T13:13:24;3.40;99.90
4390;DHT22;2209;48.982;8.406;2022-12-10T13:15:48;3.40;99.90
4390;DHT22;2209;48.982;8.406;2022-12-10T13:18:24;3.40;99.90
4390;DHT22;2209;48.982;8.406;2022-12-10T13:21:27;3.40;99.90
4390;DHT22;2209;48.982;8.406;2022-12-10T13:23:52;3.40;99.90
4390;DHT22;2209;48.982;8.406;2022-12-10T13:26:24;3.50;99.90
4390;DHT22;2209;48.982;8.406;2022-12-10T13:28:50;3.50;99.90
4390;DHT22;2209;48.982;8.406;2022-12-10T13:31:33;3.60;99.90
4390;DHT22;2209;48.982;8.406;2022-12-10T13:34:06;3.60;99.90
4390;DHT22;2209;48.982;8.406;2022-12-10T13:37:10;3.50;99.90
4390;DHT22;2209;48.982;8.406;2022-12-10T13:39:43;3.50;99.90
4390;DHT22;2209;48.982;8.406;2022-12-10T13:42:28;3.50;99.90
4390;DHT22;2209;48.982;8.406;2022-12-10T13:45:28;3.50;99.90
4390;DHT22;2209;48.982;8.406;2022-12-10T13:47:54;3.50;99.90
4390;DHT22;2209;48.982;8.406;2022-12-10T13:50:18;3.50;99.90
4390;DHT22;2209;48.982;8.406;2022-12-10T13:52:49;3.50;99.90
4390;DHT22;2209;48.982;8.406;2022-12-10T13:55:25;3.50;99.90
4390;DHT22;2209;48.982;8.406;2022-12-10T13:58:13;3.50;99.90
4390;DHT22;2209;48.982;8.406;2022-12-10T14:00:41;3.50;99.90
4390;DHT22;2209;48.982;8.406;2022-12-10T14:06:16;3.50;99.90
4390;DHT22;2209;48.982;8.406;2022-12-10T14:08:40;3.50;99.90
4390;DHT22;2209;48.982;8.406;2022-12-10T14:11:06;3.50;99.90
4390;DHT22;2209;48.982;8.406;2022-12-10T14:13:34;3.50;99.90
4390;DHT22;2209;48.982;8.406;2022-12-10T14:16:00;3.50;99.90
4390;DHT22;2209;48.982;8.406;2022-12-10T14:18:23;3.50;99.90
4390;DHT22;2209;48.982;8.406;2022-12-10T14:20:48;3.50;99.90
4390;DHT22;2209;48.982;8.406;2022-12-10T14:23:24;3.50;99.90
4390;DHT22;2209;48.982;8.406;2022-12-10T14:25:57;3.50;99.90
4390;DHT22;2209;48.982;8.406;2022-12-10T14:28:19;3.50;99.90
4390;DHT22;2209;48.982;8.406;2022-12-10T14:30:43;3.50;99.90
4390;DHT22;2209;48.982;8.406;2022-12-10T14:33:12;3.50;99.90
4390;DHT22;2209;48.982;8.406;2022-12-10T14:35:34;3.50;99.90
4390;DHT22;2209;48.982;8.406;2022-12-10T14:37:58;3.50;99.90
4390;DHT22;2209;48.982;8.406;2022-12-10T14:40:23;3.50;99.90
4390;DHT22;2209;48.982;8.406;2022-12-10T14:42:46;3.50;99.90
4390;DHT22;2209;48.982;8.406;2022-12-10T14:45:13;3.40;99.90
4390;DHT22;2209;48.982;8.406;2022-12-10T14:47:37;3.40;99.90
4390;DHT22;2209;48.982;8.406;2022-12-10T14:50:00;3.40;99.90
4390;DHT22;2209;48.982;8.406;2022-12-10T14:52:30;3.40;99.90
4390;DHT22;2209;48.982;8.406;2022-12-10T14:54:53;3.40;99.90
4390;DHT22;2209;48.982;8.406;2022-12-10T14:57:21;3.40;99.90
4390;DHT22;2209;48.982;8.406;2022-12-10T14:59:47;3.40;99.90
4390;DHT22;2209;48.982;8.406;2022-12-10T15:02:16;3.40;99.90
4390;DHT22;2209;48.982;8.406;2022-12-10T15:04:41;3.40;99.90
4390;DHT22;2209;48.982;8.406;2022-12-10T15:07:05;3.40;99.90
4390;DHT22;2209;48.982;8.406;2022-12-10T15:09:27;3.40;99.90
4390;DHT22;2209;48.982;8.406;2022-12-10T15:11:52;3.40;99.90
4390;DHT22;2209;48.982;8.406;2022-12-10T15:14:18;3.40;99.90
4390;DHT22;2209;48.982;8.406;2022-12-10T15:16:43;3.40;99.90
4390;DHT22;2209;48.982;8.406;2022-12-10T15:19:08;3.40;99.90
4390;DHT22;2209;48.982;8.406;2022-12-10T15:21:31;3.50;99.90
4390;DHT22;2209;48.982;8.406;2022-12-10T15:24:09;3.50;99.90
4390;DHT22;2209;48.982;8.406;2022-12-10T15:26:35;3.50;99.90
4390;DHT22;2209;48.982;8.406;2022-12-10T15:31:57;3.50;99.90
4390;DHT22;2209;48.982;8.406;2022-12-10T15:34:20;3.50;99.90
4390;DHT22;2209;48.982;8.406;2022-12-10T15:36:43;3.50;99.90
4390;DHT22;2209;48.982;8.406;2022-12-10T15:39:16;3.50;99.90
4390;DHT22;2209;48.982;8.406;2022-12-10T15:41:44;3.50;99.90
4390;DHT22;2209;48.982;8.406;2022-12-10T15:44:18;3.50;99.90
4390;DHT22;2209;48.982;8.406;2022-12-10T15:46:47;3.50;99.90
4390;DHT22;2209;48.982;8.406;2022-12-10T15:49:11;3.50;99.90
4390;DHT22;2209;48.982;8.406;2022-12-10T15:51:33;3.50;99.90
4390;DHT22;2209;48.982;8.406;2022-12-10T15:53:55;3.50;99.90
4390;DHT22;2209;48.982;8.406;2022-12-10T15:56:17;3.50;99.90
4390;DHT22;2209;48.982;8.406;2022-12-10T15:58:39;3.50;99.90
4390;DHT22;2209;48.982;8.406;2022-12-10T16:01:02;3.50;99.90
4390;DHT22;2209;48.982;8.406;2022-12-10T16:03:27;3.50;99.90
4390;DHT22;2209;48.982;8.406;2022-12-10T16:05:51;3.50;99.90
4390;DHT22;2209;48.982;8.406;2022-12-10T16:08:17;3.50;99.90
4390;DHT22;2209;48.982;8.406;2022-12-10T16:10:39;3.50;99.90
4390;DHT22;2209;48.982;8.406;2022-12-10T16:13:03;3.50;99.90
4390;DHT22;2209;48.982;8.406;2022-12-10T16:15:29;3.50;99.90
4390;DHT22;2209;48.982;8.406;2022-12-10T16:17:55;3.50;99.90